sensor_id;sensor_type;location;lat;lon;timestamp;pressure;altitude;pressure_sealevel;temperature;humidity
81931;BME280;71395;43.488;1.472;2023-07-20T00:01:27;99973.16;;;27.31;48.12
81931;BME280;71395;43.488;1.472;2023-07-20T00:03:53;99964.78;;;27.24;47.74
81931;BME280;71395;43.488;1.472;2023-07-20T00:06:22;99957.63;;;27.16;48.11
81931;BME280;71395;43.488;1.472;2023-07-20T00:08:49;99940.63;;;27.11;47.94
81931;BME280;71395;43.488;1.472;2023-07-20T00:11:14;99978.69;;;27.31;48.20
81931;BME280;71395;43.488;1.472;2023-07-20T00:13:40;99970.41;;;27.31;48.34
81931;BME280;71395;43.488;1.472;2023-07-20T00:16:06;99975.13;;;27.31;47.60
81931;BME280;71395;43.488;1.472;2023-07-20T00:18:31;99964.06;;;27.27;47.99
81931;BME280;71395;43.488;1.472;2023-07-20T00:20:57;99964.91;;;27.31;48.19
81931;BME280;71395;43.488;1.472;2023-07-20T00:23:25;99952.19;;;27.23;48.00
81931;BME280;71395;43.488;1.472;2023-07-20T00:25:51;99966.88;;;27.31;47.73
81931;BME280;71395;43.488;1.472;2023-07-20T00:28:16;99975.94;;;27.31;47.69
81931;BME280;71395;43.488;1.472;2023-07-20T00:30:42;99974.34;;;27.30;47.72
81931;BME280;71395;43.488;1.472;2023-07-20T00:33:11;99958.63;;;27.31;47.97
81931;BME280;71395;43.488;1.472;2023-07-20T00:35:38;99957.81;;;27.30;47.88
81931;BME280;71395;43.488;1.472;2023-07-20T00:38:04;99960.19;;;27.32;47.65
81931;BME280;71395;43.488;1.472;2023-07-20T00:40:40;99961.00;;;27.33;47.66
81931;BME280;71395;43.488;1.472;2023-07-20T00:43:06;99956.66;;;27.31;47.62
81931;BME280;71395;43.488;1.472;2023-07-20T00:45:33;99941.19;;;27.23;47.81
81931;BME280;71395;43.488;1.472;2023-07-20T00:48:01;99954.69;;;27.32;47.76
81931;BME280;71395;43.488;1.472;2023-07-20T00:50:27;99936.94;;;27.29;48.01
81931;BME280;71395;43.488;1.472;2023-07-20T00:52:55;99938.13;;;27.28;47.73
81931;BME280;71395;43.488;1.472;2023-07-20T00:55:22;99940.13;;;27.31;48.04
81931;BME280;71395;43.488;1.472;2023-07-20T00:57:48;99929.84;;;27.28;47.85
81931;BME280;71395;43.488;1.472;2023-07-20T01:00:15;99918.44;;;27.26;48.30
81931;BME280;71395;43.488;1.472;2023-07-20T01:02:40;99927.09;;;27.28;47.62
81931;BME280;71395;43.488;1.472;2023-07-20T01:05:06;99926.38;;;27.31;48.19
81931;BME280;71395;43.488;1.472;2023-07-20T01:07:36;99928.34;;;27.31;48.15
81931;BME280;71395;43.488;1.472;2023-07-20T01:10:32;99930.31;;;27.34;48.04
81931;BME280;71395;43.488;1.472;2023-07-20T01:13:00;99922.03;;;27.30;48.30
81931;BME280;71395;43.488;1.472;2023-07-20T01:15:27;99913.78;;;27.30;47.69
81931;BME280;71395;43.488;1.472;2023-07-20T01:17:52;99912.97;;;27.30;48.31
81931;BME280;71395;43.488;1.472;2023-07-20T01:20:19;99916.53;;;27.30;47.60
81931;BME280;71395;43.488;1.472;2023-07-20T01:23:33;99912.59;;;27.31;47.67
81931;BME280;71395;43.488;1.472;2023-07-20T01:31:25;99912.16;;;27.29;47.63
81931;BME280;71395;43.488;1.472;2023-07-20T01:33:56;99904.25;;;27.24;48.26
81931;BME280;71395;43.488;1.472;2023-07-20T01:36:23;99898.31;;;27.22;47.60
81931;BME280;71395;43.488;1.472;2023-07-20T01:38:51;99890.78;;;27.19;47.80
81931;BME280;71395;43.488;1.472;2023-07-20T01:41:17;99902.78;;;27.30;48.07
81931;BME280;71395;43.488;1.472;2023-07-20T01:43:43;99898.84;;;27.31;47.61
81931;BME280;71395;43.488;1.472;2023-07-20T01:46:09;99897.25;;;27.30;47.83
81931;BME280;71395;43.488;1.472;2023-07-20T01:48:34;99905.94;;;27.33;47.41
81931;BME280;71395;43.488;1.472;2023-07-20T01:51:00;99889.34;;;27.29;47.45
81931;BME280;71395;43.488;1.472;2023-07-20T01:53:25;99890.59;;;27.31;48.22
81931;BME280;71395;43.488;1.472;2023-07-20T01:55:54;99888.63;;;27.32;47.72
81931;BME280;71395;43.488;1.472;2023-07-20T01:58:20;99884.28;;;27.31;47.63
81931;BME280;71395;43.488;1.472;2023-07-20T02:00:46;99868.44;;;27.24;47.71
81931;BME280;71395;43.488;1.472;2023-07-20T02:03:11;99882.69;;;27.30;47.57
81931;BME280;71395;43.488;1.472;2023-07-20T02:05:37;99879.19;;;27.33;48.13
81931;BME280;71395;43.488;1.472;2023-07-20T02:08:06;99878.41;;;27.33;48.14
81931;BME280;71395;43.488;1.472;2023-07-20T02:10:31;99879.56;;;27.31;48.03
81931;BME280;71395;43.488;1.472;2023-07-20T02:12:57;99872.09;;;27.32;47.48
81931;BME280;71395;43.488;1.472;2023-07-20T02:15:22;99870.47;;;27.27;47.60
81931;BME280;71395;43.488;1.472;2023-07-20T02:17:48;99870.47;;;27.27;47.75
81931;BME280;71395;43.488;1.472;2023-07-20T02:20:13;99872.91;;;27.33;47.38
81931;BME280;71395;43.488;1.472;2023-07-20T02:22:39;99870.16;;;27.33;47.82
81931;BME280;71395;43.488;1.472;2023-07-20T02:25:06;99840.44;;;27.15;47.75
81931;BME280;71395;43.488;1.472;2023-07-20T02:27:35;99872.91;;;27.33;47.97
81931;BME280;71395;43.488;1.472;2023-07-20T02:30:02;99842.03;;;27.16;47.49
81931;BME280;71395;43.488;1.472;2023-07-20T02:32:28;99859.13;;;27.33;47.52
81931;BME280;71395;43.488;1.472;2023-07-20T02:34:54;99869.75;;;27.34;48.07
81931;BME280;71395;43.488;1.472;2023-07-20T02:37:19;99866.22;;;27.34;47.78
81931;BME280;71395;43.488;1.472;2023-07-20T02:39:45;99862.66;;;27.33;47.44
81931;BME280;71395;43.488;1.472;2023-07-20T02:42:10;99866.22;;;27.34;47.75
81931;BME280;71395;43.488;1.472;2023-07-20T02:44:36;99857.16;;;27.33;47.31
81931;BME280;71395;43.488;1.472;2023-07-20T02:47:01;99860.72;;;27.34;47.96
81931;BME280;71395;43.488;1.472;2023-07-20T02:49:27;99857.97;;;27.34;47.30
81931;BME280;71395;43.488;1.472;2023-07-20T02:51:52;99857.97;;;27.34;47.83
81931;BME280;71395;43.488;1.472;2023-07-20T02:54:18;99838.94;;;27.21;47.36
81931;BME280;71395;43.488;1.472;2023-07-20T02:56:44;99836.59;;;27.23;47.86
81931;BME280;71395;43.488;1.472;2023-07-20T02:59:10;99847.72;;;27.30;47.53
81931;BME280;71395;43.488;1.472;2023-07-20T03:01:35;99844.19;;;27.34;47.57
81931;BME280;71395;43.488;1.472;2023-07-20T03:04:01;99850.88;;;27.33;47.81
81931;BME280;71395;43.488;1.472;2023-07-20T03:06:27;99844.56;;;27.32;47.83
81931;BME280;71395;43.488;1.472;2023-07-20T03:08:53;99853.63;;;27.33;47.89
81931;BME280;71395;43.488;1.472;2023-07-20T03:11:19;99846.94;;;27.34;47.39
81931;BME280;71395;43.488;1.472;2023-07-20T03:13:46;99838.59;;;27.26;47.28
81931;BME280;71395;43.488;1.472;2023-07-20T03:16:13;99850.47;;;27.34;47.33
81931;BME280;71395;43.488;1.472;2023-07-20T03:18:41;99832.31;;;27.26;47.33
81931;BME280;71395;43.488;1.472;2023-07-20T03:21:08;99835.13;;;27.33;47.89
81931;BME280;71395;43.488;1.472;2023-07-20T03:23:37;99830.44;;;27.34;47.44
81931;BME280;71395;43.488;1.472;2023-07-20T03:26:02;99828.84;;;27.33;47.34
81931;BME280;71395;43.488;1.472;2023-07-20T03:28:28;99826.84;;;27.29;47.73
81931;BME280;71395;43.488;1.472;2023-07-20T03:30:54;99810.25;;;27.22;47.74
81931;BME280;71395;43.488;1.472;2023-07-20T03:33:27;99826.50;;;27.35;47.72
81931;BME280;71395;43.488;1.472;2023-07-20T03:35:54;99818.16;;;27.27;47.88
81931;BME280;71395;43.488;1.472;2023-07-20T03:38:20;99830.44;;;27.34;47.78
81931;BME280;71395;43.488;1.472;2023-07-20T03:40:50;99807.53;;;27.26;47.29
81931;BME280;71395;43.488;1.472;2023-07-20T03:43:15;99817.84;;;27.33;47.90
81931;BME280;71395;43.488;1.472;2023-07-20T03:45:41;99811.53;;;27.32;47.27
81931;BME280;71395;43.488;1.472;2023-07-20T03:48:06;99812.34;;;27.33;47.18
81931;BME280;71395;43.488;1.472;2023-07-20T03:50:32;99810.75;;;27.31;47.24
81931;BME280;71395;43.488;1.472;2023-07-20T03:52:58;99820.59;;;27.33;47.90
81931;BME280;71395;43.488;1.472;2023-07-20T03:55:23;99817.84;;;27.33;47.32
81931;BME280;71395;43.488;1.472;2023-07-20T03:57:49;99806.41;;;27.30;47.26
81931;BME280;71395;43.488;1.472;2023-07-20T04:00:17;99805.25;;;27.31;47.96
81931;BME280;71395;43.488;1.472;2023-07-20T04:02:42;99816.25;;;27.31;47.24
81931;BME280;71395;43.488;1.472;2023-07-20T04:05:08;99816.25;;;27.31;47.32
81931;BME280;71395;43.488;1.472;2023-07-20T04:07:33;99795.63;;;27.18;47.47
81931;BME280;71395;43.488;1.472;2023-07-20T04:09:59;99817.44;;;27.30;47.59
81931;BME280;71395;43.488;1.472;2023-07-20T04:12:24;99802.38;;;27.24;47.77
81931;BME280;71395;43.488;1.472;2023-07-20T04:14:50;99809.16;;;27.30;47.86
81931;BME280;71395;43.488;1.472;2023-07-20T04:17:17;99814.69;;;27.30;47.95
81931;BME280;71395;43.488;1.472;2023-07-20T04:19:42;99808.34;;;27.30;47.53
81931;BME280;71395;43.488;1.472;2023-07-20T04:22:08;99805.97;;;27.28;47.62
81931;BME280;71395;43.488;1.472;2023-07-20T04:24:33;99795.75;;;27.29;47.57
81931;BME280;71395;43.488;1.472;2023-07-20T04:26:59;99804.03;;;27.29;47.67
81931;BME280;71395;43.488;1.472;2023-07-20T04:29:24;99805.97;;;27.28;47.83
81931;BME280;71395;43.488;1.472;2023-07-20T04:31:49;99801.28;;;27.29;47.39
81931;BME280;71395;43.488;1.472;2023-07-20T04:34:15;99796.56;;;27.29;47.43
81931;BME280;71395;43.488;1.472;2023-07-20T04:36:40;99793.00;;;27.29;47.64
81931;BME280;71395;43.488;1.472;2023-07-20T04:39:06;99749.41;;;27.01;47.75
81931;BME280;71395;43.488;1.472;2023-07-20T04:41:33;99790.25;;;27.29;47.67
81931;BME280;71395;43.488;1.472;2023-07-20T04:43:59;99794.97;;;27.28;47.88
81931;BME280;71395;43.488;1.472;2023-07-20T04:46:25;99776.41;;;27.22;47.29
81931;BME280;71395;43.488;1.472;2023-07-20T04:48:50;99791.84;;;27.30;47.24
81931;BME280;71395;43.488;1.472;2023-07-20T04:51:16;99796.56;;;27.29;47.60
81931;BME280;71395;43.488;1.472;2023-07-20T04:53:46;99786.72;;;27.28;47.98
81931;BME280;71395;43.488;1.472;2023-07-20T04:56:12;99782.00;;;27.29;47.61
81931;BME280;71395;43.488;1.472;2023-07-20T04:58:37;99775.97;;;27.20;47.52
81931;BME280;71395;43.488;1.472;2023-07-20T05:01:03;99793.41;;;27.27;47.56
81931;BME280;71395;43.488;1.472;2023-07-20T05:03:28;99785.94;;;27.28;47.40
81931;BME280;71395;43.488;1.472;2023-07-20T05:05:54;99788.69;;;27.28;47.42
81931;BME280;71395;43.488;1.472;2023-07-20T05:08:20;99781.97;;;27.25;47.51
81931;BME280;71395;43.488;1.472;2023-07-20T05:10:47;99789.47;;;27.28;47.82
81931;BME280;71395;43.488;1.472;2023-07-20T05:13:13;99785.94;;;27.28;47.65
81931;BME280;71395;43.488;1.472;2023-07-20T05:15:39;99777.22;;;27.22;47.61
81931;BME280;71395;43.488;1.472;2023-07-20T05:18:04;99774.06;;;27.20;47.92
81931;BME280;71395;43.488;1.472;2023-07-20T05:20:30;99769.78;;;27.26;47.37
81931;BME280;71395;43.488;1.472;2023-07-20T05:22:57;99777.25;;;27.26;47.80
81931;BME280;71395;43.488;1.472;2023-07-20T05:25:22;99765.78;;;27.20;47.46
81931;BME280;71395;43.488;1.472;2023-07-20T05:27:48;99769.69;;;27.19;47.41
81931;BME280;71395;43.488;1.472;2023-07-20T05:30:13;99773.72;;;27.25;47.83
81931;BME280;71395;43.488;1.472;2023-07-20T05:32:39;99776.09;;;27.27;47.79
81931;BME280;71395;43.488;1.472;2023-07-20T05:35:05;99782.38;;;27.27;47.84
81931;BME280;71395;43.488;1.472;2023-07-20T05:37:31;99775.28;;;27.26;47.12
81931;BME280;71395;43.488;1.472;2023-07-20T05:39:57;99774.13;;;27.27;47.40
81931;BME280;71395;43.488;1.472;2023-07-20T05:42:23;99773.72;;;27.25;48.10
81931;BME280;71395;43.488;1.472;2023-07-20T05:44:48;99775.69;;;27.28;47.43
81931;BME280;71395;43.488;1.472;2023-07-20T05:47:15;99785.53;;;27.29;47.84
81931;BME280;71395;43.488;1.472;2023-07-20T05:49:40;99768.16;;;27.22;47.89
81931;BME280;71395;43.488;1.472;2023-07-20T05:52:06;99753.50;;;27.14;47.86
81931;BME280;71395;43.488;1.472;2023-07-20T05:54:32;99771.00;;;27.29;47.69
81931;BME280;71395;43.488;1.472;2023-07-20T05:56:57;99773.00;;;27.32;47.69
81931;BME280;71395;43.488;1.472;2023-07-20T05:59:23;99780.88;;;27.34;47.60
81931;BME280;71395;43.488;1.472;2023-07-20T06:01:49;99774.19;;;27.35;47.37
81931;BME280;71395;43.488;1.472;2023-07-20T06:04:15;99770.63;;;27.30;47.75
81931;BME280;71395;43.488;1.472;2023-07-20T06:06:41;99770.66;;;27.34;48.06
81931;BME280;71395;43.488;1.472;2023-07-20T06:09:06;99755.25;;;27.29;47.49
81931;BME280;71395;43.488;1.472;2023-07-20T06:11:37;99765.59;;;27.40;47.55
81931;BME280;71395;43.488;1.472;2023-07-20T06:14:03;99762.78;;;27.33;47.33
81931;BME280;71395;43.488;1.472;2023-07-20T06:16:28;99775.88;;;27.43;47.55
81931;BME280;71395;43.488;1.472;2023-07-20T06:18:55;99775.47;;;27.44;47.59
81931;BME280;71395;43.488;1.472;2023-07-20T06:21:20;99765.59;;;27.40;47.98
81931;BME280;71395;43.488;1.472;2023-07-20T06:23:46;99761.69;;;27.41;47.43
81931;BME280;71395;43.488;1.472;2023-07-20T06:26:11;99775.53;;;27.48;47.13
81931;BME280;71395;43.488;1.472;2023-07-20T06:28:37;99766.88;;;27.49;47.69
81931;BME280;71395;43.488;1.472;2023-07-20T06:31:03;99768.09;;;27.52;47.19
81931;BME280;71395;43.488;1.472;2023-07-20T06:33:29;99760.56;;;27.45;47.16
81931;BME280;71395;43.488;1.472;2023-07-20T06:35:55;99776.75;;;27.54;46.99
81931;BME280;71395;43.488;1.472;2023-07-20T06:38:22;99771.66;;;27.52;47.36
81931;BME280;71395;43.488;1.472;2023-07-20T06:40:51;99778.38;;;27.58;47.25
81931;BME280;71395;43.488;1.472;2023-07-20T06:43:17;99769.69;;;27.53;47.38
81931;BME280;71395;43.488;1.472;2023-07-20T06:45:43;99774.09;;;27.61;47.43
81931;BME280;71395;43.488;1.472;2023-07-20T06:48:09;99782.75;;;27.63;47.32
81931;BME280;71395;43.488;1.472;2023-07-20T06:50:35;99778.03;;;27.64;47.32
81931;BME280;71395;43.488;1.472;2023-07-20T06:53:00;99773.31;;;27.64;47.17
81931;BME280;71395;43.488;1.472;2023-07-20T06:55:29;99776.50;;;27.66;47.16
81931;BME280;71395;43.488;1.472;2023-07-20T06:57:55;99770.16;;;27.62;47.18
81931;BME280;71395;43.488;1.472;2023-07-20T07:00:20;99775.69;;;27.62;47.20
81931;BME280;71395;43.488;1.472;2023-07-20T07:02:46;99773.66;;;27.59;47.15
81931;BME280;71395;43.488;1.472;2023-07-20T07:05:11;99765.34;;;27.52;47.50
81931;BME280;71395;43.488;1.472;2023-07-20T07:07:38;99757.81;;;27.49;47.70
81931;BME280;71395;43.488;1.472;2023-07-20T07:10:04;99747.16;;;27.44;47.47
81931;BME280;71395;43.488;1.472;2023-07-20T07:12:30;99742.81;;;27.43;47.74
81931;BME280;71395;43.488;1.472;2023-07-20T07:14:56;99758.59;;;27.46;47.49
81931;BME280;71395;43.488;1.472;2023-07-20T07:17:22;99759.72;;;27.41;47.82
81931;BME280;71395;43.488;1.472;2023-07-20T07:19:47;99741.50;;;27.29;47.94
81931;BME280;71395;43.488;1.472;2023-07-20T07:22:13;99756.19;;;27.41;47.57
81931;BME280;71395;43.488;1.472;2023-07-20T07:24:39;99758.56;;;27.42;47.82
81931;BME280;71395;43.488;1.472;2023-07-20T07:27:08;99744.72;;;27.35;47.11
81931;BME280;71395;43.488;1.472;2023-07-20T07:29:34;99766.03;;;27.42;47.47
81931;BME280;71395;43.488;1.472;2023-07-20T07:31:59;99761.69;;;27.41;47.74
81931;BME280;71395;43.488;1.472;2023-07-20T07:34:25;99757.31;;;27.36;47.79
81931;BME280;71395;43.488;1.472;2023-07-20T07:36:51;99757.28;;;27.33;47.62
81931;BME280;71395;43.488;1.472;2023-07-20T07:39:16;99761.25;;;27.39;47.20
81931;BME280;71395;43.488;1.472;2023-07-20T07:41:42;99759.69;;;27.38;47.19
81931;BME280;71395;43.488;1.472;2023-07-20T07:44:07;99761.59;;;27.34;47.86
81931;BME280;71395;43.488;1.472;2023-07-20T07:46:33;99758.09;;;27.37;47.42
81931;BME280;71395;43.488;1.472;2023-07-20T07:48:59;99754.91;;;27.31;47.72
81931;BME280;71395;43.488;1.472;2023-07-20T07:51:25;99754.91;;;27.35;47.09
81931;BME280;71395;43.488;1.472;2023-07-20T07:53:52;99747.78;;;27.26;47.29
81931;BME280;71395;43.488;1.472;2023-07-20T07:56:17;99753.72;;;27.32;47.47
81931;BME280;71395;43.488;1.472;2023-07-20T07:58:48;99750.19;;;27.31;47.23
81931;BME280;71395;43.488;1.472;2023-07-20T08:01:13;99742.28;;;27.30;47.41
81931;BME280;71395;43.488;1.472;2023-07-20T08:03:39;99737.13;;;27.25;47.82
81931;BME280;71395;43.488;1.472;2023-07-20T08:06:05;99742.25;;;27.26;47.63
81931;BME280;71395;43.488;1.472;2023-07-20T08:08:32;99744.59;;;27.24;47.48
81931;BME280;71395;43.488;1.472;2023-07-20T08:10:58;99747.38;;;27.28;47.71
81931;BME280;71395;43.488;1.472;2023-07-20T08:13:23;99729.97;;;27.17;47.47
81931;BME280;71395;43.488;1.472;2023-07-20T08:15:50;99737.56;;;27.27;47.89
81931;BME280;71395;43.488;1.472;2023-07-20T08:18:19;99737.56;;;27.27;47.84
81931;BME280;71395;43.488;1.472;2023-07-20T08:20:45;99737.94;;;27.25;47.96
81931;BME280;71395;43.488;1.472;2023-07-20T08:23:12;99730.41;;;27.22;47.96
81931;BME280;71395;43.488;1.472;2023-07-20T08:25:38;99733.22;;;27.26;47.75
81931;BME280;71395;43.488;1.472;2023-07-20T08:28:05;99735.97;;;27.26;47.49
81931;BME280;71395;43.488;1.472;2023-07-20T08:30:40;99732.84;;;27.27;48.19
81931;BME280;71395;43.488;1.472;2023-07-20T08:33:06;99729.69;;;27.25;48.08
81931;BME280;71395;43.488;1.472;2023-07-20T08:35:31;99732.44;;;27.25;47.61
81931;BME280;71395;43.488;1.472;2023-07-20T08:37:57;99735.53;;;27.24;47.70
81931;BME280;71395;43.488;1.472;2023-07-20T08:40:22;99735.19;;;27.25;47.70
81931;BME280;71395;43.488;1.472;2023-07-20T08:42:48;99730.00;;;27.20;47.71
81931;BME280;71395;43.488;1.472;2023-07-20T08:45:16;99735.53;;;27.20;47.83
81931;BME280;71395;43.488;1.472;2023-07-20T08:47:43;99736.75;;;27.26;48.16
81931;BME280;71395;43.488;1.472;2023-07-20T08:50:09;99735.19;;;27.25;47.22
81931;BME280;71395;43.488;1.472;2023-07-20T08:52:36;99724.50;;;27.20;47.54
81931;BME280;71395;43.488;1.472;2023-07-20T08:55:06;99733.56;;;27.24;47.90
81931;BME280;71395;43.488;1.472;2023-07-20T08:57:32;99729.97;;;27.17;47.84
81931;BME280;71395;43.488;1.472;2023-07-20T08:59:59;99714.19;;;27.14;47.76
81931;BME280;71395;43.488;1.472;2023-07-20T09:02:26;99723.34;;;27.21;47.79
81931;BME280;71395;43.488;1.472;2023-07-20T09:04:52;99721.38;;;27.22;47.92
81931;BME280;71395;43.488;1.472;2023-07-20T09:07:19;99707.16;;;27.16;47.91
81931;BME280;71395;43.488;1.472;2023-07-20T09:09:45;99706.84;;;27.25;47.91
81931;BME280;71395;43.488;1.472;2023-07-20T09:12:14;99713.16;;;27.25;47.63
81931;BME280;71395;43.488;1.472;2023-07-20T09:14:43;99703.28;;;27.24;48.06
81931;BME280;71395;43.488;1.472;2023-07-20T09:17:12;99706.09;;;27.28;47.46
81931;BME280;71395;43.488;1.472;2023-07-20T09:19:38;99699.00;;;27.27;47.40
81931;BME280;71395;43.488;1.472;2023-07-20T09:22:05;99691.50;;;27.24;47.57
81931;BME280;71395;43.488;1.472;2023-07-20T09:24:31;99697.78;;;27.24;47.46
81931;BME280;71395;43.488;1.472;2023-07-20T09:27:01;99697.44;;;27.29;47.43
81931;BME280;71395;43.488;1.472;2023-07-20T09:29:29;99683.97;;;27.17;47.87
81931;BME280;71395;43.488;1.472;2023-07-20T09:32:03;99699.06;;;27.30;47.68
81931;BME280;71395;43.488;1.472;2023-07-20T09:34:32;99683.66;;;27.26;47.42
81931;BME280;71395;43.488;1.472;2023-07-20T09:36:59;99682.06;;;27.25;47.46
81931;BME280;71395;43.488;1.472;2023-07-20T09:39:24;99673.03;;;27.24;47.24
81931;BME280;71395;43.488;1.472;2023-07-20T09:41:51;99669.53;;;27.27;47.65
81931;BME280;71395;43.488;1.472;2023-07-20T09:44:17;99678.66;;;27.35;47.07
81931;BME280;71395;43.488;1.472;2023-07-20T09:46:47;99681.03;;;27.37;47.54
81931;BME280;71395;43.488;1.472;2023-07-20T09:49:13;99675.50;;;27.37;46.77
81931;BME280;71395;43.488;1.472;2023-07-20T09:51:40;99670.00;;;27.37;46.39
81931;BME280;71395;43.488;1.472;2023-07-20T09:54:07;99669.22;;;27.36;46.04
81931;BME280;71395;43.488;1.472;2023-07-20T09:56:33;99670.78;;;27.37;46.45
81931;BME280;71395;43.488;1.472;2023-07-20T09:58:58;99664.13;;;27.38;46.16
81931;BME280;71395;43.488;1.472;2023-07-20T10:01:26;99659.75;;;27.34;45.64
81931;BME280;71395;43.488;1.472;2023-07-20T10:03:54;99659.81;;;27.41;45.85
81931;BME280;71395;43.488;1.472;2023-07-20T10:06:24;99658.22;;;27.40;46.05
81931;BME280;71395;43.488;1.472;2023-07-20T10:08:53;99648.81;;;27.41;45.57
81931;BME280;71395;43.488;1.472;2023-07-20T10:11:21;99648.03;;;27.40;45.65
81931;BME280;71395;43.488;1.472;2023-07-20T10:13:51;99646.47;;;27.43;45.93
81931;BME280;71395;43.488;1.472;2023-07-20T10:16:25;99633.78;;;27.35;45.73
81931;BME280;71395;43.488;1.472;2023-07-20T10:21:29;99632.66;;;27.36;45.42
81931;BME280;71395;43.488;1.472;2023-07-20T10:23:56;99631.44;;;27.33;45.28
81931;BME280;71395;43.488;1.472;2023-07-20T10:26:23;99644.09;;;27.45;45.02
81931;BME280;71395;43.488;1.472;2023-07-20T10:28:49;99638.19;;;27.43;45.63
81931;BME280;71395;43.488;1.472;2023-07-20T10:31:15;99627.97;;;27.43;45.38
81931;BME280;71395;43.488;1.472;2023-07-20T10:33:42;99640.19;;;27.46;45.52
81931;BME280;71395;43.488;1.472;2023-07-20T10:36:10;99625.25;;;27.47;45.42
81931;BME280;71395;43.488;1.472;2023-07-20T10:41:22;99628.41;;;27.49;45.55
81931;BME280;71395;43.488;1.472;2023-07-20T10:43:51;99624.47;;;27.46;44.86
81931;BME280;71395;43.488;1.472;2023-07-20T10:49:04;99621.31;;;27.48;45.46
81931;BME280;71395;43.488;1.472;2023-07-20T10:51:38;99621.31;;;27.48;45.06
81931;BME280;71395;43.488;1.472;2023-07-20T10:54:08;99617.81;;;27.51;45.29
81931;BME280;71395;43.488;1.472;2023-07-20T10:56:33;99621.31;;;27.48;44.78
81931;BME280;71395;43.488;1.472;2023-07-20T10:59:00;99614.28;;;27.50;45.20
81931;BME280;71395;43.488;1.472;2023-07-20T11:01:36;99611.19;;;27.55;44.70
81931;BME280;71395;43.488;1.472;2023-07-20T11:04:08;99608.78;;;27.54;44.39
81931;BME280;71395;43.488;1.472;2023-07-20T11:06:33;99607.97;;;27.50;45.17
81931;BME280;71395;43.488;1.472;2023-07-20T11:09:06;99602.91;;;27.55;44.97
81931;BME280;71395;43.488;1.472;2023-07-20T11:11:47;99602.91;;;27.55;45.01
81931;BME280;71395;43.488;1.472;2023-07-20T11:14:23;99602.13;;;27.55;44.39
81931;BME280;71395;43.488;1.472;2023-07-20T11:16:51;99583.19;;;27.50;44.53
81931;BME280;71395;43.488;1.472;2023-07-20T11:19:24;99595.44;;;27.60;44.53
81931;BME280;71395;43.488;1.472;2023-07-20T11:21:55;99590.75;;;27.60;44.33
81931;BME280;71395;43.488;1.472;2023-07-20T11:24:20;99585.59;;;27.58;44.57
81931;BME280;71395;43.488;1.472;2023-07-20T11:26:49;99572.25;;;27.61;44.44
81931;BME280;71395;43.488;1.472;2023-07-20T11:29:20;99507.88;;;27.21;44.69
81931;BME280;71395;43.488;1.472;2023-07-20T11:31:47;99569.91;;;27.63;44.71
81931;BME280;71395;43.488;1.472;2023-07-20T11:34:17;99559.63;;;27.56;44.41
81931;BME280;71395;43.488;1.472;2023-07-20T11:36:46;99565.59;;;27.65;44.90
81931;BME280;71395;43.488;1.472;2023-07-20T11:39:13;99540.34;;;27.52;44.47
81931;BME280;71395;43.488;1.472;2023-07-20T11:41:46;99556.56;;;27.68;44.34
81931;BME280;71395;43.488;1.472;2023-07-20T11:44:12;99555.00;;;27.67;44.44
81931;BME280;71395;43.488;1.472;2023-07-20T11:46:41;99552.63;;;27.69;44.57
81931;BME280;71395;43.488;1.472;2023-07-20T11:49:07;99530.16;;;27.60;44.66
81931;BME280;71395;43.488;1.472;2023-07-20T11:51:34;99535.75;;;27.71;44.22
81931;BME280;71395;43.488;1.472;2023-07-20T11:54:01;99534.13;;;27.70;44.82
81931;BME280;71395;43.488;1.472;2023-07-20T11:56:27;99529.06;;;27.72;44.29
81931;BME280;71395;43.488;1.472;2023-07-20T11:59:00;99534.19;;;27.73;44.75
81931;BME280;71395;43.488;1.472;2023-07-20T12:01:27;99525.94;;;27.73;44.80
81931;BME280;71395;43.488;1.472;2023-07-20T12:04:01;99526.34;;;27.75;44.44
81931;BME280;71395;43.488;1.472;2023-07-20T12:06:29;99526.34;;;27.75;44.45
81931;BME280;71395;43.488;1.472;2023-07-20T12:08:56;99520.84;;;27.75;44.50
81931;BME280;71395;43.488;1.472;2023-07-20T12:11:35;99521.63;;;27.79;44.48
81931;BME280;71395;43.488;1.472;2023-07-20T12:14:02;99513.72;;;27.74;44.63
81931;BME280;71395;43.488;1.472;2023-07-20T12:16:29;99509.81;;;27.79;44.35
81931;BME280;71395;43.488;1.472;2023-07-20T12:19:02;99495.63;;;27.73;44.50
81931;BME280;71395;43.488;1.472;2023-07-20T12:21:29;99501.19;;;27.80;44.48
81931;BME280;71395;43.488;1.472;2023-07-20T12:23:56;99492.53;;;27.82;44.49
81931;BME280;71395;43.488;1.472;2023-07-20T12:26:24;99498.81;;;27.82;44.35
81931;BME280;71395;43.488;1.472;2023-07-20T12:28:50;99492.13;;;27.83;44.29
81931;BME280;71395;43.488;1.472;2023-07-20T12:31:16;99490.94;;;27.85;44.47
81931;BME280;71395;43.488;1.472;2023-07-20T12:33:42;99484.25;;;27.82;44.23
81931;BME280;71395;43.488;1.472;2023-07-20T12:36:09;99486.22;;;27.81;44.33
81931;BME280;71395;43.488;1.472;2023-07-20T12:38:35;99466.81;;;27.64;44.16
81931;BME280;71395;43.488;1.472;2023-07-20T12:41:01;99476.25;;;27.59;43.50
81931;BME280;71395;43.488;1.472;2023-07-20T12:43:27;99471.00;;;27.40;43.62
81931;BME280;71395;43.488;1.472;2023-07-20T12:45:55;99472.50;;;27.26;43.62
81931;BME280;71395;43.488;1.472;2023-07-20T12:48:21;99463.75;;;27.14;43.72
81931;BME280;71395;43.488;1.472;2023-07-20T12:50:48;99469.16;;;27.03;43.87
81931;BME280;71395;43.488;1.472;2023-07-20T12:53:15;99464.31;;;26.89;44.01
81931;BME280;71395;43.488;1.472;2023-07-20T12:55:40;99464.31;;;26.86;44.37
81931;BME280;71395;43.488;1.472;2023-07-20T12:58:09;99460.28;;;26.72;44.14
81931;BME280;71395;43.488;1.472;2023-07-20T13:00:35;99454.72;;;26.69;43.08
81931;BME280;71395;43.488;1.472;2023-07-20T13:03:01;99443.59;;;26.54;43.48
81931;BME280;71395;43.488;1.472;2023-07-20T13:05:32;99454.97;;;26.53;43.66
81931;BME280;71395;43.488;1.472;2023-07-20T13:07:58;99465.59;;;26.54;43.67
81931;BME280;71395;43.488;1.472;2023-07-20T13:10:24;99457.25;;;26.44;43.62
81931;BME280;71395;43.488;1.472;2023-07-20T13:12:50;99446.69;;;26.46;43.22